sensor_id;sensor_type;location;lat;lon;timestamp;P1;durP1;ratioP1;P2;durP2;ratioP2
61638;SDS011;47544;52.484;4.658;2022-09-13T00:00:10;10.10;;;8.32;;
61638;SDS011;47544;52.484;4.658;2022-09-13T00:00:21;11.50;;;8.48;;
61638;SDS011;47544;52.484;4.658;2022-09-13T00:00:33;11.10;;;8.30;;
61638;SDS011;47544;52.484;4.658;2022-09-13T00:00:44;10.07;;;8.00;;
61638;SDS011;47544;52.484;4.658;2022-09-13T00:00:56;9.95;;;7.90;;
61638;SDS011;47544;52.484;4.658;2022-09-13T00:01:07;10.98;;;7.95;;
61638;SDS011;47544;52.484;4.658;2022-09-13T00:01:19;11.07;;;8.40;;
61638;SDS011;47544;52.484;4.658;2022-09-13T00:01:29;10.00;;;8.38;;
61638;SDS011;47544;52.484;4.658;2022-09-13T00:01:42;10.05;;;8.27;;
61638;SDS011;47544;52.484;4.658;2022-09-13T00:01:52;11.57;;;8.35;;
61638;SDS011;47544;52.484;4.658;2022-09-13T00:02:03;11.68;;;8.20;;
61638;SDS011;47544;52.484;4.658;2022-09-13T00:02:14;10.52;;;8.10;;
61638;SDS011;47544;52.484;4.658;2022-09-13T00:02:25;10.77;;;8.02;;
61638;SDS011;47544;52.484;4.658;2022-09-13T00:02:37;10.82;;;8.23;;
61638;SDS011;47544;52.484;4.658;2022-09-13T00:02:48;10.45;;;8.20;;
61638;SDS011;47544;52.484;4.658;2022-09-13T00:02:59;11.20;;;8.48;;
61638;SDS011;47544;52.484;4.658;2022-09-13T00:03:11;11.55;;;8.70;;
61638;SDS011;47544;52.484;4.658;2022-09-13T00:03:22;11.77;;;8.90;;
61638;SDS011;47544;52.484;4.658;2022-09-13T00:03:33;12.02;;;8.75;;
61638;SDS011;47544;52.484;4.658;2022-09-13T00:03:44;12.55;;;8.80;;
61638;SDS011;47544;52.484;4.658;2022-09-13T00:03:54;12.27;;;8.80;;
61638;SDS011;47544;52.484;4.658;2022-09-13T00:04:07;10.65;;;8.77;;
61638;SDS011;47544;52.484;4.658;2022-09-13T00:04:18;10.73;;;8.32;;
61638;SDS011;47544;52.484;4.658;2022-09-13T00:04:29;10.77;;;7.97;;
61638;SDS011;47544;52.484;4.658;2022-09-13T00:04:40;10.98;;;8.00;;
61638;SDS011;47544;52.484;4.658;2022-09-13T00:04:52;11.73;;;8.40;;
61638;SDS011;47544;52.484;4.658;2022-09-13T00:05:03;12.15;;;8.55;;
61638;SDS011;47544;52.484;4.658;2022-09-13T00:05:14;12.07;;;8.77;;
61638;SDS011;47544;52.484;4.658;2022-09-13T00:05:26;11.07;;;8.50;;
61638;SDS011;47544;52.484;4.658;2022-09-13T00:05:37;10.73;;;8.40;;
61638;SDS011;47544;52.484;4.658;2022-09-13T00:05:50;10.10;;;8.15;;
61638;SDS011;47544;52.484;4.658;2022-09-13T00:06:08;10.68;;;8.30;;
61638;SDS011;47544;52.484;4.658;2022-09-13T00:06:19;10.23;;;8.48;;
61638;SDS011;47544;52.484;4.658;2022-09-13T00:06:31;10.63;;;8.70;;
61638;SDS011;47544;52.484;4.658;2022-09-13T00:06:42;10.40;;;8.52;;
61638;SDS011;47544;52.484;4.658;2022-09-13T00:06:53;10.55;;;8.48;;
61638;SDS011;47544;52.484;4.658;2022-09-13T00:07:04;9.48;;;8.40;;
61638;SDS011;47544;52.484;4.658;2022-09-13T00:07:15;10.40;;;8.55;;
61638;SDS011;47544;52.484;4.658;2022-09-13T00:07:26;10.82;;;8.40;;
61638;SDS011;47544;52.484;4.658;2022-09-13T00:07:37;11.38;;;8.32;;
61638;SDS011;47544;52.484;4.658;2022-09-13T00:07:48;10.57;;;8.30;;
61638;SDS011;47544;52.484;4.658;2022-09-13T00:07:59;10.82;;;8.43;;
61638;SDS011;47544;52.484;4.658;2022-09-13T00:08:11;10.80;;;8.57;;
61638;SDS011;47544;52.484;4.658;2022-09-13T00:08:22;10.00;;;8.55;;
61638;SDS011;47544;52.484;4.658;2022-09-13T00:08:33;10.23;;;8.63;;
61638;SDS011;47544;52.484;4.658;2022-09-13T00:08:44;10.10;;;8.70;;
61638;SDS011;47544;52.484;4.658;2022-09-13T00:08:55;9.90;;;8.65;;
61638;SDS011;47544;52.484;4.658;2022-09-13T00:09:10;10.50;;;8.63;;
61638;SDS011;47544;52.484;4.658;2022-09-13T00:09:22;11.27;;;8.75;;
61638;SDS011;47544;52.484;4.658;2022-09-13T00:09:32;10.32;;;8.48;;
61638;SDS011;47544;52.484;4.658;2022-09-13T00:09:43;11.38;;;8.27;;
61638;SDS011;47544;52.484;4.658;2022-09-13T00:09:54;11.73;;;7.97;;
61638;SDS011;47544;52.484;4.658;2022-09-13T00:10:06;11.77;;;7.78;;
61638;SDS011;47544;52.484;4.658;2022-09-13T00:10:17;11.05;;;7.78;;
61638;SDS011;47544;52.484;4.658;2022-09-13T00:10:27;10.75;;;7.90;;
61638;SDS011;47544;52.484;4.658;2022-09-13T00:10:39;10.20;;;7.97;;
61638;SDS011;47544;52.484;4.658;2022-09-13T00:10:51;9.40;;;7.95;;
61638;SDS011;47544;52.484;4.658;2022-09-13T00:11:02;8.90;;;7.97;;
61638;SDS011;47544;52.484;4.658;2022-09-13T00:11:15;9.40;;;8.40;;
61638;SDS011;47544;52.484;4.658;2022-09-13T00:11:27;10.35;;;8.20;;
61638;SDS011;47544;52.484;4.658;2022-09-13T00:11:38;12.07;;;7.90;;
61638;SDS011;47544;52.484;4.658;2022-09-13T00:11:49;12.07;;;7.63;;
61638;SDS011;47544;52.484;4.658;2022-09-13T00:12:01;10.60;;;7.55;;
61638;SDS011;47544;52.484;4.658;2022-09-13T00:12:12;10.85;;;7.70;;
61638;SDS011;47544;52.484;4.658;2022-09-13T00:12:25;10.30;;;7.60;;
61638;SDS011;47544;52.484;4.658;2022-09-13T00:12:36;10.27;;;7.15;;
61638;SDS011;47544;52.484;4.658;2022-09-13T00:12:47;10.32;;;6.90;;
61638;SDS011;47544;52.484;4.658;2022-09-13T00:12:58;10.65;;;7.07;;
61638;SDS011;47544;52.484;4.658;2022-09-13T00:13:10;9.40;;;7.22;;
61638;SDS011;47544;52.484;4.658;2022-09-13T00:13:22;9.15;;;7.45;;
61638;SDS011;47544;52.484;4.658;2022-09-13T00:13:33;10.85;;;7.65;;
61638;SDS011;47544;52.484;4.658;2022-09-13T00:13:44;11.63;;;8.07;;
61638;SDS011;47544;52.484;4.658;2022-09-13T00:13:55;11.32;;;8.02;;
61638;SDS011;47544;52.484;4.658;2022-09-13T00:14:07;11.00;;;7.65;;
61638;SDS011;47544;52.484;4.658;2022-09-13T00:14:18;10.93;;;7.72;;
61638;SDS011;47544;52.484;4.658;2022-09-13T00:14:29;10.43;;;7.90;;
61638;SDS011;47544;52.484;4.658;2022-09-13T00:14:40;9.98;;;7.72;;
61638;SDS011;47544;52.484;4.658;2022-09-13T00:14:51;9.52;;;6.97;;
61638;SDS011;47544;52.484;4.658;2022-09-13T00:15:02;8.98;;;6.50;;
61638;SDS011;47544;52.484;4.658;2022-09-13T00:15:15;10.48;;;6.55;;
61638;SDS011;47544;52.484;4.658;2022-09-13T00:15:26;11.82;;;7.25;;
61638;SDS011;47544;52.484;4.658;2022-09-13T00:15:41;10.68;;;7.55;;
61638;SDS011;47544;52.484;4.658;2022-09-13T00:15:52;10.77;;;7.50;;
61638;SDS011;47544;52.484;4.658;2022-09-13T00:16:04;10.70;;;7.15;;
61638;SDS011;47544;52.484;4.658;2022-09-13T00:16:21;9.88;;;6.97;;
61638;SDS011;47544;52.484;4.658;2022-09-13T00:16:32;9.70;;;7.18;;
61638;SDS011;47544;52.484;4.658;2022-09-13T00:16:43;9.75;;;7.38;;
61638;SDS011;47544;52.484;4.658;2022-09-13T00:16:57;9.60;;;7.30;;
61638;SDS011;47544;52.484;4.658;2022-09-13T00:17:08;9.32;;;7.20;;
61638;SDS011;47544;52.484;4.658;2022-09-13T00:17:19;9.85;;;7.18;;
61638;SDS011;47544;52.484;4.658;2022-09-13T00:17:30;10.40;;;7.28;;
61638;SDS011;47544;52.484;4.658;2022-09-13T00:17:42;9.88;;;7.05;;
61638;SDS011;47544;52.484;4.658;2022-09-13T00:17:53;9.50;;;6.97;;
61638;SDS011;47544;52.484;4.658;2022-09-13T00:18:04;9.95;;;7.20;;
61638;SDS011;47544;52.484;4.658;2022-09-13T00:18:15;10.02;;;7.10;;
61638;SDS011;47544;52.484;4.658;2022-09-13T00:18:26;9.50;;;6.70;;
61638;SDS011;47544;52.484;4.658;2022-09-13T00:18:37;8.23;;;6.10;;
61638;SDS011;47544;52.484;4.658;2022-09-13T00:18:48;8.02;;;6.13;;
61638;SDS011;47544;52.484;4.658;2022-09-13T00:19:00;7.55;;;6.20;;
61638;SDS011;47544;52.484;4.658;2022-09-13T00:19:11;8.15;;;6.25;;
61638;SDS011;47544;52.484;4.658;2022-09-13T00:19:22;8.82;;;6.57;;
61638;SDS011;47544;52.484;4.658;2022-09-13T00:19:34;9.55;;;6.90;;
61638;SDS011;47544;52.484;4.658;2022-09-13T00:19:45;9.10;;;7.18;;
61638;SDS011;47544;52.484;4.658;2022-09-13T00:19:56;8.77;;;7.07;;
61638;SDS011;47544;52.484;4.658;2022-09-13T00:20:07;9.38;;;6.65;;
61638;SDS011;47544;52.484;4.658;2022-09-13T00:20:19;9.73;;;6.50;;
61638;SDS011;47544;52.484;4.658;2022-09-13T00:20:30;9.13;;;6.30;;
61638;SDS011;47544;52.484;4.658;2022-09-13T00:20:41;7.78;;;6.32;;
61638;SDS011;47544;52.484;4.658;2022-09-13T00:21:03;8.43;;;6.75;;
61638;SDS011;47544;52.484;4.658;2022-09-13T00:21:15;9.27;;;6.97;;
61638;SDS011;47544;52.484;4.658;2022-09-13T00:21:26;10.35;;;6.93;;
61638;SDS011;47544;52.484;4.658;2022-09-13T00:21:38;10.00;;;6.82;;
61638;SDS011;47544;52.484;4.658;2022-09-13T00:21:49;9.75;;;6.90;;
61638;SDS011;47544;52.484;4.658;2022-09-13T00:22:00;9.48;;;6.70;;
61638;SDS011;47544;52.484;4.658;2022-09-13T00:22:11;9.70;;;6.70;;
61638;SDS011;47544;52.484;4.658;2022-09-13T00:22:25;10.32;;;6.88;;
61638;SDS011;47544;52.484;4.658;2022-09-13T00:22:36;9.35;;;6.90;;
61638;SDS011;47544;52.484;4.658;2022-09-13T00:22:47;8.57;;;6.67;;
61638;SDS011;47544;52.484;4.658;2022-09-13T00:22:58;8.48;;;6.30;;
61638;SDS011;47544;52.484;4.658;2022-09-13T00:23:09;8.38;;;6.03;;
61638;SDS011;47544;52.484;4.658;2022-09-13T00:23:20;8.75;;;6.05;;
61638;SDS011;47544;52.484;4.658;2022-09-13T00:23:31;8.52;;;6.03;;
61638;SDS011;47544;52.484;4.658;2022-09-13T00:23:43;7.97;;;6.20;;
61638;SDS011;47544;52.484;4.658;2022-09-13T00:23:56;7.38;;;6.15;;
61638;SDS011;47544;52.484;4.658;2022-09-13T00:24:07;7.65;;;6.45;;
61638;SDS011;47544;52.484;4.658;2022-09-13T00:24:18;8.65;;;6.65;;
61638;SDS011;47544;52.484;4.658;2022-09-13T00:24:28;9.20;;;6.53;;
61638;SDS011;47544;52.484;4.658;2022-09-13T00:24:39;10.23;;;6.40;;
61638;SDS011;47544;52.484;4.658;2022-09-13T00:24:51;10.50;;;6.10;;
61638;SDS011;47544;52.484;4.658;2022-09-13T00:25:01;10.40;;;6.40;;
61638;SDS011;47544;52.484;4.658;2022-09-13T00:25:13;10.80;;;6.63;;
61638;SDS011;47544;52.484;4.658;2022-09-13T00:25:24;11.25;;;6.78;;
61638;SDS011;47544;52.484;4.658;2022-09-13T00:25:36;9.93;;;6.45;;
61638;SDS011;47544;52.484;4.658;2022-09-13T00:25:47;8.13;;;6.13;;
61638;SDS011;47544;52.484;4.658;2022-09-13T00:26:02;7.65;;;5.90;;
61638;SDS011;47544;52.484;4.658;2022-09-13T00:26:13;8.35;;;6.05;;
61638;SDS011;47544;52.484;4.658;2022-09-13T00:26:26;8.98;;;6.38;;
61638;SDS011;47544;52.484;4.658;2022-09-13T00:26:37;9.98;;;6.43;;
61638;SDS011;47544;52.484;4.658;2022-09-13T00:26:48;10.20;;;6.30;;
61638;SDS011;47544;52.484;4.658;2022-09-13T00:27:00;9.32;;;6.22;;
61638;SDS011;47544;52.484;4.658;2022-09-13T00:27:11;8.70;;;6.40;;
61638;SDS011;47544;52.484;4.658;2022-09-13T00:27:22;8.75;;;6.60;;
61638;SDS011;47544;52.484;4.658;2022-09-13T00:27:33;8.70;;;6.80;;
61638;SDS011;47544;52.484;4.658;2022-09-13T00:27:44;9.77;;;6.78;;
61638;SDS011;47544;52.484;4.658;2022-09-13T00:27:55;9.73;;;6.70;;
61638;SDS011;47544;52.484;4.658;2022-09-13T00:28:06;8.88;;;6.40;;
61638;SDS011;47544;52.484;4.658;2022-09-13T00:28:17;7.97;;;6.20;;
61638;SDS011;47544;52.484;4.658;2022-09-13T00:28:28;8.52;;;5.90;;
61638;SDS011;47544;52.484;4.658;2022-09-13T00:28:40;8.15;;;5.78;;
61638;SDS011;47544;52.484;4.658;2022-09-13T00:28:51;7.35;;;5.60;;
61638;SDS011;47544;52.484;4.658;2022-09-13T00:29:02;7.55;;;5.80;;
61638;SDS011;47544;52.484;4.658;2022-09-13T00:29:13;7.72;;;5.90;;
61638;SDS011;47544;52.484;4.658;2022-09-13T00:29:24;7.45;;;6.10;;
61638;SDS011;47544;52.484;4.658;2022-09-13T00:29:35;7.00;;;6.10;;
61638;SDS011;47544;52.484;4.658;2022-09-13T00:29:46;8.02;;;6.07;;
61638;SDS011;47544;52.484;4.658;2022-09-13T00:29:57;8.88;;;6.00;;
61638;SDS011;47544;52.484;4.658;2022-09-13T00:30:09;8.87;;;6.00;;
61638;SDS011;47544;52.484;4.658;2022-09-13T00:30:21;8.75;;;6.05;;
61638;SDS011;47544;52.484;4.658;2022-09-13T00:30:32;8.88;;;5.68;;
61638;SDS011;47544;52.484;4.658;2022-09-13T00:30:43;8.70;;;5.55;;
61638;SDS011;47544;52.484;4.658;2022-09-13T00:30:54;8.25;;;5.47;;
61638;SDS011;47544;52.484;4.658;2022-09-13T00:31:08;8.23;;;5.50;;
61638;SDS011;47544;52.484;4.658;2022-09-13T00:31:20;8.32;;;5.40;;
61638;SDS011;47544;52.484;4.658;2022-09-13T00:31:32;8.27;;;5.50;;
61638;SDS011;47544;52.484;4.658;2022-09-13T00:31:44;7.50;;;5.57;;
61638;SDS011;47544;52.484;4.658;2022-09-13T00:31:55;7.53;;;5.80;;
61638;SDS011;47544;52.484;4.658;2022-09-13T00:32:07;7.32;;;5.93;;
61638;SDS011;47544;52.484;4.658;2022-09-13T00:32:18;7.38;;;5.82;;
61638;SDS011;47544;52.484;4.658;2022-09-13T00:32:29;7.97;;;6.10;;
61638;SDS011;47544;52.484;4.658;2022-09-13T00:32:40;8.48;;;6.32;;
61638;SDS011;47544;52.484;4.658;2022-09-13T00:32:51;9.13;;;6.30;;
61638;SDS011;47544;52.484;4.658;2022-09-13T00:33:02;8.95;;;6.10;;
61638;SDS011;47544;52.484;4.658;2022-09-13T00:33:14;8.65;;;5.97;;
61638;SDS011;47544;52.484;4.658;2022-09-13T00:33:26;7.47;;;5.93;;
61638;SDS011;47544;52.484;4.658;2022-09-13T00:33:37;8.25;;;6.00;;
61638;SDS011;47544;52.484;4.658;2022-09-13T00:33:48;8.73;;;6.03;;
61638;SDS011;47544;52.484;4.658;2022-09-13T00:33:58;8.48;;;5.78;;
61638;SDS011;47544;52.484;4.658;2022-09-13T00:34:10;7.40;;;5.70;;
61638;SDS011;47544;52.484;4.658;2022-09-13T00:34:20;7.70;;;5.65;;
61638;SDS011;47544;52.484;4.658;2022-09-13T00:34:31;8.47;;;5.93;;
61638;SDS011;47544;52.484;4.658;2022-09-13T00:34:42;8.43;;;6.00;;
61638;SDS011;47544;52.484;4.658;2022-09-13T00:34:53;7.38;;;6.10;;
61638;SDS011;47544;52.484;4.658;2022-09-13T00:35:05;7.72;;;6.20;;
61638;SDS011;47544;52.484;4.658;2022-09-13T00:35:17;8.10;;;6.03;;
61638;SDS011;47544;52.484;4.658;2022-09-13T00:35:28;8.65;;;6.13;;
61638;SDS011;47544;52.484;4.658;2022-09-13T00:35:39;8.77;;;6.15;;
61638;SDS011;47544;52.484;4.658;2022-09-13T00:35:50;8.98;;;6.28;;
61638;SDS011;47544;52.484;4.658;2022-09-13T00:36:03;8.40;;;6.00;;
61638;SDS011;47544;52.484;4.658;2022-09-13T00:36:16;9.00;;;5.82;;
61638;SDS011;47544;52.484;4.658;2022-09-13T00:36:28;8.73;;;5.80;;
61638;SDS011;47544;52.484;4.658;2022-09-13T00:36:39;8.90;;;5.88;;
61638;SDS011;47544;52.484;4.658;2022-09-13T00:36:50;9.25;;;5.90;;
61638;SDS011;47544;52.484;4.658;2022-09-13T00:37:01;9.07;;;5.90;;
61638;SDS011;47544;52.484;4.658;2022-09-13T00:37:12;10.18;;;5.90;;
61638;SDS011;47544;52.484;4.658;2022-09-13T00:37:23;9.52;;;5.93;;
61638;SDS011;47544;52.484;4.658;2022-09-13T00:37:34;8.75;;;5.80;;
61638;SDS011;47544;52.484;4.658;2022-09-13T00:37:45;7.80;;;5.50;;
61638;SDS011;47544;52.484;4.658;2022-09-13T00:37:57;7.35;;;5.50;;
61638;SDS011;47544;52.484;4.658;2022-09-13T00:38:08;7.85;;;5.53;;
61638;SDS011;47544;52.484;4.658;2022-09-13T00:38:20;9.63;;;5.70;;
61638;SDS011;47544;52.484;4.658;2022-09-13T00:38:31;10.25;;;5.80;;
61638;SDS011;47544;52.484;4.658;2022-09-13T00:38:44;9.63;;;5.80;;
61638;SDS011;47544;52.484;4.658;2022-09-13T00:38:55;8.30;;;5.82;;
61638;SDS011;47544;52.484;4.658;2022-09-13T00:39:06;7.05;;;5.50;;
61638;SDS011;47544;52.484;4.658;2022-09-13T00:39:17;6.68;;;5.47;;
61638;SDS011;47544;52.484;4.658;2022-09-13T00:39:28;6.90;;;5.40;;
61638;SDS011;47544;52.484;4.658;2022-09-13T00:39:39;7.40;;;5.63;;
61638;SDS011;47544;52.484;4.658;2022-09-13T00:39:49;7.90;;;5.82;;
61638;SDS011;47544;52.484;4.658;2022-09-13T00:40:02;8.13;;;5.82;;
61638;SDS011;47544;52.484;4.658;2022-09-13T00:40:13;8.00;;;5.70;;
61638;SDS011;47544;52.484;4.658;2022-09-13T00:40:24;7.43;;;5.60;;
61638;SDS011;47544;52.484;4.658;2022-09-13T00:40:36;7.60;;;5.70;;
61638;SDS011;47544;52.484;4.658;2022-09-13T00:40:47;7.07;;;5.40;;
61638;SDS011;47544;52.484;4.658;2022-09-13T00:40:58;8.07;;;5.40;;
61638;SDS011;47544;52.484;4.658;2022-09-13T00:41:10;7.80;;;5.47;;
61638;SDS011;47544;52.484;4.658;2022-09-13T00:41:22;8.27;;;5.97;;
61638;SDS011;47544;52.484;4.658;2022-09-13T00:41:34;7.75;;;5.90;;
61638;SDS011;47544;52.484;4.658;2022-09-13T00:41:45;8.32;;;5.75;;
61638;SDS011;47544;52.484;4.658;2022-09-13T00:41:55;7.93;;;5.55;;
61638;SDS011;47544;52.484;4.658;2022-09-13T00:42:08;7.77;;;5.40;;
61638;SDS011;47544;52.484;4.658;2022-09-13T00:42:23;8.35;;;5.50;;
61638;SDS011;47544;52.484;4.658;2022-09-13T00:42:34;8.40;;;5.75;;
61638;SDS011;47544;52.484;4.658;2022-09-13T00:42:45;7.90;;;5.68;;
61638;SDS011;47544;52.484;4.658;2022-09-13T00:42:56;8.27;;;5.57;;
61638;SDS011;47544;52.484;4.658;2022-09-13T00:43:09;7.95;;;5.40;;
61638;SDS011;47544;52.484;4.658;2022-09-13T00:43:37;8.18;;;5.50;;
61638;SDS011;47544;52.484;4.658;2022-09-13T00:43:51;8.82;;;5.18;;
61638;SDS011;47544;52.484;4.658;2022-09-13T00:44:04;8.27;;;5.00;;
61638;SDS011;47544;52.484;4.658;2022-09-13T00:44:52;8.20;;;5.50;;
61638;SDS011;47544;52.484;4.658;2022-09-13T00:45:13;7.43;;;5.60;;
61638;SDS011;47544;52.484;4.658;2022-09-13T00:45:25;8.30;;;5.60;;
61638;SDS011;47544;52.484;4.658;2022-09-13T00:45:36;9.18;;;5.40;;
61638;SDS011;47544;52.484;4.658;2022-09-13T00:45:48;8.88;;;5.40;;
61638;SDS011;47544;52.484;4.658;2022-09-13T00:45:59;7.78;;;5.30;;
61638;SDS011;47544;52.484;4.658;2022-09-13T00:46:10;7.90;;;5.43;;
61638;SDS011;47544;52.484;4.658;2022-09-13T00:46:25;7.53;;;5.40;;
61638;SDS011;47544;52.484;4.658;2022-09-13T00:46:38;7.68;;;5.55;;
61638;SDS011;47544;52.484;4.658;2022-09-13T00:46:52;7.75;;;5.50;;
61638;SDS011;47544;52.484;4.658;2022-09-13T00:47:03;7.38;;;5.35;;
61638;SDS011;47544;52.484;4.658;2022-09-13T00:47:14;7.55;;;5.30;;
61638;SDS011;47544;52.484;4.658;2022-09-13T00:47:31;7.55;;;5.30;;
61638;SDS011;47544;52.484;4.658;2022-09-13T00:47:44;7.15;;;5.35;;
61638;SDS011;47544;52.484;4.658;2022-09-13T00:47:57;6.88;;;5.25;;
61638;SDS011;47544;52.484;4.658;2022-09-13T00:48:09;7.25;;;5.15;;
61638;SDS011;47544;52.484;4.658;2022-09-13T00:48:23;7.45;;;5.28;;
61638;SDS011;47544;52.484;4.658;2022-09-13T00:48:35;6.80;;;5.22;;
61638;SDS011;47544;52.484;4.658;2022-09-13T00:48:46;7.68;;;5.20;;
61638;SDS011;47544;52.484;4.658;2022-09-13T00:48:58;7.50;;;5.00;;
61638;SDS011;47544;52.484;4.658;2022-09-13T00:49:11;8.13;;;5.30;;
61638;SDS011;47544;52.484;4.658;2022-09-13T00:49:26;8.23;;;5.50;;
61638;SDS011;47544;52.484;4.658;2022-09-13T00:49:39;7.70;;;5.28;;
61638;SDS011;47544;52.484;4.658;2022-09-13T00:49:51;8.13;;;5.05;;
61638;SDS011;47544;52.484;4.658;2022-09-13T00:50:06;8.48;;;5.00;;
61638;SDS011;47544;52.484;4.658;2022-09-13T00:50:18;7.90;;;5.20;;
61638;SDS011;47544;52.484;4.658;2022-09-13T00:50:31;7.47;;;5.30;;
61638;SDS011;47544;52.484;4.658;2022-09-13T00:50:44;8.00;;;5.32;;
61638;SDS011;47544;52.484;4.658;2022-09-13T00:51:00;7.95;;;5.38;;
61638;SDS011;47544;52.484;4.658;2022-09-13T00:51:13;6.80;;;5.30;;
61638;SDS011;47544;52.484;4.658;2022-09-13T00:51:24;7.15;;;5.25;;
61638;SDS011;47544;52.484;4.658;2022-09-13T00:51:36;6.90;;;5.05;;
61638;SDS011;47544;52.484;4.658;2022-09-13T00:51:47;6.68;;;5.10;;
61638;SDS011;47544;52.484;4.658;2022-09-13T00:52:07;6.80;;;5.35;;
61638;SDS011;47544;52.484;4.658;2022-09-13T00:52:19;7.90;;;5.60;;
61638;SDS011;47544;52.484;4.658;2022-09-13T00:52:30;8.73;;;5.47;;
61638;SDS011;47544;52.484;4.658;2022-09-13T00:52:43;8.35;;;5.30;;
61638;SDS011;47544;52.484;4.658;2022-09-13T00:52:56;9.40;;;5.30;;
61638;SDS011;47544;52.484;4.658;2022-09-13T00:53:08;9.25;;;5.10;;
61638;SDS011;47544;52.484;4.658;2022-09-13T00:53:22;7.68;;;5.10;;
61638;SDS011;47544;52.484;4.658;2022-09-13T00:53:37;6.22;;;4.90;;
61638;SDS011;47544;52.484;4.658;2022-09-13T00:53:49;6.82;;;4.70;;
61638;SDS011;47544;52.484;4.658;2022-09-13T00:54:02;6.80;;;4.65;;
61638;SDS011;47544;52.484;4.658;2022-09-13T00:54:13;7.45;;;4.75;;
61638;SDS011;47544;52.484;4.658;2022-09-13T00:54:26;7.15;;;4.80;;
61638;SDS011;47544;52.484;4.658;2022-09-13T00:54:39;7.38;;;4.75;;
61638;SDS011;47544;52.484;4.658;2022-09-13T00:54:53;7.60;;;4.75;;
61638;SDS011;47544;52.484;4.658;2022-09-13T00:55:07;7.03;;;4.47;;
61638;SDS011;47544;52.484;4.658;2022-09-13T00:55:19;7.88;;;4.32;;
61638;SDS011;47544;52.484;4.658;2022-09-13T00:55:31;7.82;;;4.30;;
61638;SDS011;47544;52.484;4.658;2022-09-13T00:55:45;8.63;;;4.40;;
61638;SDS011;47544;52.484;4.658;2022-09-13T00:55:57;8.13;;;4.50;;
61638;SDS011;47544;52.484;4.658;2022-09-13T00:56:10;7.70;;;4.50;;
61638;SDS011;47544;52.484;4.658;2022-09-13T00:56:24;7.18;;;4.50;;
61638;SDS011;47544;52.484;4.658;2022-09-13T00:56:37;6.45;;;4.32;;
61638;SDS011;47544;52.484;4.658;2022-09-13T00:56:49;6.03;;;4.28;;
61638;SDS011;47544;52.484;4.658;2022-09-13T00:57:02;5.70;;;4.18;;
61638;SDS011;47544;52.484;4.658;2022-09-13T00:57:14;6.63;;;4.20;;
61638;SDS011;47544;52.484;4.658;2022-09-13T00:57:26;6.75;;;4.35;;
61638;SDS011;47544;52.484;4.658;2022-09-13T00:57:38;6.90;;;4.28;;
61638;SDS011;47544;52.484;4.658;2022-09-13T00:57:51;6.43;;;4.28;;
61638;SDS011;47544;52.484;4.658;2022-09-13T00:58:04;6.25;;;4.13;;
61638;SDS011;47544;52.484;4.658;2022-09-13T00:58:16;5.95;;;4.03;;
61638;SDS011;47544;52.484;4.658;2022-09-13T00:58:28;6.55;;;3.90;;
61638;SDS011;47544;52.484;4.658;2022-09-13T00:58:42;6.93;;;4.13;;
61638;SDS011;47544;52.484;4.658;2022-09-13T00:58:54;6.90;;;4.35;;
61638;SDS011;47544;52.484;4.658;2022-09-13T00:59:08;6.43;;;4.22;;
61638;SDS011;47544;52.484;4.658;2022-09-13T00:59:24;5.57;;;3.95;;
61638;SDS011;47544;52.484;4.658;2022-09-13T00:59:37;6.32;;;4.13;;
61638;SDS011;47544;52.484;4.658;2022-09-13T00:59:50;6.13;;;4.22;;
61638;SDS011;47544;52.484;4.658;2022-09-13T01:00:04;5.25;;;4.15;;
61638;SDS011;47544;52.484;4.658;2022-09-13T01:00:20;5.22;;;4.10;;
61638;SDS011;47544;52.484;4.658;2022-09-13T01:00:31;6.28;;;4.13;;
61638;SDS011;47544;52.484;4.658;2022-09-13T01:00:42;6.28;;;3.97;;
61638;SDS011;47544;52.484;4.658;2022-09-13T01:00:54;6.85;;;3.97;;
61638;SDS011;47544;52.484;4.658;2022-09-13T01:01:06;5.80;;;3.70;;
61638;SDS011;47544;52.484;4.658;2022-09-13T01:01:20;6.15;;;3.55;;
61638;SDS011;47544;52.484;4.658;2022-09-13T01:01:35;5.88;;;3.50;;
61638;SDS011;47544;52.484;4.658;2022-09-13T01:01:48;5.53;;;3.70;;
61638;SDS011;47544;52.484;4.658;2022-09-13T01:02:01;5.47;;;3.90;;
61638;SDS011;47544;52.484;4.658;2022-09-13T01:02:14;5.38;;;3.80;;
61638;SDS011;47544;52.484;4.658;2022-09-13T01:02:25;5.68;;;3.80;;
61638;SDS011;47544;52.484;4.658;2022-09-13T01:02:36;6.53;;;3.97;;
61638;SDS011;47544;52.484;4.658;2022-09-13T01:02:49;6.60;;;3.90;;
61638;SDS011;47544;52.484;4.658;2022-09-13T01:03:02;6.18;;;3.90;;
61638;SDS011;47544;52.484;4.658;2022-09-13T01:03:15;6.47;;;4.00;;
61638;SDS011;47544;52.484;4.658;2022-09-13T01:03:28;6.35;;;4.00;;
61638;SDS011;47544;52.484;4.658;2022-09-13T01:03:40;5.97;;;3.90;;
61638;SDS011;47544;52.484;4.658;2022-09-13T01:03:52;5.80;;;3.80;;
61638;SDS011;47544;52.484;4.658;2022-09-13T01:04:03;5.97;;;3.70;;
61638;SDS011;47544;52.484;4.658;2022-09-13T01:04:15;6.00;;;3.53;;
61638;SDS011;47544;52.484;4.658;2022-09-13T01:04:27;5.40;;;3.60;;
61638;SDS011;47544;52.484;4.658;2022-09-13T01:04:40;4.82;;;3.45;;
61638;SDS011;47544;52.484;4.658;2022-09-13T01:04:51;4.88;;;3.30;;
61638;SDS011;47544;52.484;4.658;2022-09-13T01:05:02;4.60;;;3.20;;
61638;SDS011;47544;52.484;4.658;2022-09-13T01:05:14;4.55;;;3.33;;
61638;SDS011;47544;52.484;4.658;2022-09-13T01:05:25;5.65;;;3.45;;
61638;SDS011;47544;52.484;4.658;2022-09-13T01:05:37;6.63;;;3.58;;
61638;SDS011;47544;52.484;4.658;2022-09-13T01:05:52;6.70;;;3.50;;
61638;SDS011;47544;52.484;4.658;2022-09-13T01:06:04;6.00;;;3.70;;
61638;SDS011;47544;52.484;4.658;2022-09-13T01:06:20;5.75;;;3.80;;
61638;SDS011;47544;52.484;4.658;2022-09-13T01:06:32;5.50;;;3.60;;
61638;SDS011;47544;52.484;4.658;2022-09-13T01:06:44;5.18;;;3.38;;
61638;SDS011;47544;52.484;4.658;2022-09-13T01:06:57;5.57;;;3.33;;
61638;SDS011;47544;52.484;4.658;2022-09-13T01:07:10;5.82;;;3.25;;
61638;SDS011;47544;52.484;4.658;2022-09-13T01:07:23;4.93;;;3.15;;
61638;SDS011;47544;52.484;4.658;2022-09-13T01:07:34;5.32;;;3.20;;
61638;SDS011;47544;52.484;4.658;2022-09-13T01:07:45;5.15;;;3.40;;
61638;SDS011;47544;52.484;4.658;2022-09-13T01:07:56;5.55;;;3.50;;
61638;SDS011;47544;52.484;4.658;2022-09-13T01:08:07;6.00;;;3.45;;
61638;SDS011;47544;52.484;4.658;2022-09-13T01:08:22;5.82;;;3.40;;
61638;SDS011;47544;52.484;4.658;2022-09-13T01:08:34;5.45;;;3.45;;
61638;SDS011;47544;52.484;4.658;2022-09-13T01:08:47;6.32;;;3.45;;
61638;SDS011;47544;52.484;4.658;2022-09-13T01:08:58;7.07;;;3.47;;
61638;SDS011;47544;52.484;4.658;2022-09-13T01:09:13;6.18;;;3.30;;
61638;SDS011;47544;52.484;4.658;2022-09-13T01:09:25;5.28;;;3.25;;
61638;SDS011;47544;52.484;4.658;2022-09-13T01:09:36;4.75;;;3.28;;
61638;SDS011;47544;52.484;4.658;2022-09-13T01:09:49;5.05;;;3.25;;
61638;SDS011;47544;52.484;4.658;2022-09-13T01:10:02;4.90;;;3.38;;
61638;SDS011;47544;52.484;4.658;2022-09-13T01:10:14;4.40;;;3.38;;
61638;SDS011;47544;52.484;4.658;2022-09-13T01:10:25;4.60;;;3.35;;
61638;SDS011;47544;52.484;4.658;2022-09-13T01:10:36;5.55;;;3.53;;
61638;SDS011;47544;52.484;4.658;2022-09-13T01:10:50;5.90;;;3.55;;
61638;SDS011;47544;52.484;4.658;2022-09-13T01:11:01;5.63;;;3.38;;
61638;SDS011;47544;52.484;4.658;2022-09-13T01:11:18;6.03;;;3.38;;
61638;SDS011;47544;52.484;4.658;2022-09-13T01:11:34;5.68;;;3.30;;
61638;SDS011;47544;52.484;4.658;2022-09-13T01:11:50;5.45;;;3.20;;
61638;SDS011;47544;52.484;4.658;2022-09-13T01:12:15;5.43;;;3.28;;
61638;SDS011;47544;52.484;4.658;2022-09-13T01:12:29;4.68;;;3.30;;
61638;SDS011;47544;52.484;4.658;2022-09-13T01:12:42;4.97;;;3.28;;
61638;SDS011;47544;52.484;4.658;2022-09-13T01:12:57;4.93;;;3.35;;
61638;SDS011;47544;52.484;4.658;2022-09-13T01:13:12;6.20;;;3.70;;
61638;SDS011;47544;52.484;4.658;2022-09-13T01:13:27;6.43;;;3.47;;